Alfalfa, Louisiana
Current Conditions -  °F | °C
As of 9:53 PM on Friday 19 Dec 2014 (Local Time) from KAEX Reporting Station
Light Rain Light Rain  
Wind Chill:   Ceiling: 600
Heat Index:   Visibility: 10mi
Dew Point:   Wind: 7mph
Humidity: 93%   Direction: 30°NNE
Pressure: 30.15"   Gusts: NA
Location:  31.3168°N, 92.7338°W
Report Text: KAEX 200353Z 03006KT 10SM -RA OVC006 09/08 A3015 RMK AO2 RAB23 SLP214 P0000 T00890078
Loading
Personal Weather Stations






























Interactive Weather Map New forecast layout! Learn more

10-Day Weather Forecast

Advertisements
Track Severe Weather on mobile